createdAt,value
2022-08-02T00:00:40.533Z,0.70
2022-08-02T00:03:08.276Z,0.60
2022-08-02T00:05:36.104Z,0.70
2022-08-02T00:08:04.230Z,0.70
2022-08-02T00:10:32.314Z,0.70
2022-08-02T00:13:00.385Z,0.70
2022-08-02T00:15:28.191Z,0.75
2022-08-02T00:17:55.898Z,0.63
2022-08-02T00:20:23.915Z,0.68
2022-08-02T00:22:52.194Z,0.63
2022-08-02T00:25:20.363Z,0.80
2022-08-02T00:27:48.153Z,0.60
2022-08-02T00:30:16.102Z,0.80
2022-08-02T00:32:44.037Z,0.80
2022-08-02T00:35:11.859Z,0.80
2022-08-02T00:37:44.725Z,1.00
2022-08-02T00:40:12.753Z,1.20
2022-08-02T00:42:41.044Z,0.90
2022-08-02T00:45:09.640Z,0.98
2022-08-02T00:47:37.378Z,1.10
2022-08-02T00:50:05.846Z,1.00
2022-08-02T00:52:33.665Z,0.85
2022-08-02T00:55:01.641Z,1.10
2022-08-02T00:57:29.455Z,0.90
2022-08-02T00:59:57.265Z,1.00
2022-08-02T01:02:25.229Z,1.15
2022-08-02T01:04:53.833Z,0.95
2022-08-02T01:07:21.807Z,0.82
2022-08-02T01:09:50.197Z,0.85
2022-08-02T01:12:18.332Z,0.80
2022-08-02T01:14:52.262Z,0.98
2022-08-02T01:17:39.467Z,0.93
2022-08-02T01:20:53.800Z,1.10
2022-08-02T01:23:46.035Z,1.13
2022-08-02T01:26:57.893Z,1.10
2022-08-02T01:29:39.433Z,1.27
2022-08-02T01:32:19.206Z,1.10
2022-08-02T01:35:00.107Z,1.10
2022-08-02T01:37:49.927Z,1.30
2022-08-02T01:40:27.283Z,1.20
2022-08-02T01:42:57.798Z,1.42
2022-08-02T01:45:30.632Z,1.33
2022-08-02T01:48:01.174Z,1.17
2022-08-02T01:50:33.591Z,1.33
2022-08-02T01:53:07.545Z,1.23
2022-08-02T01:55:57.118Z,1.38
2022-08-02T01:58:37.533Z,1.27
2022-08-02T02:01:07.898Z,1.13
2022-08-02T02:03:41.653Z,1.13
2022-08-02T02:06:11.570Z,1.20
2022-08-02T02:08:43.591Z,1.25
2022-08-02T02:12:06.468Z,1.13
2022-08-02T02:14:02.682Z,1.00
2022-08-02T02:16:32.264Z,1.15
2022-08-02T02:19:03.649Z,1.20
2022-08-02T02:21:32.251Z,1.02
2022-08-02T02:24:03.773Z,1.10
2022-08-02T02:26:35.915Z,1.30
2022-08-02T02:29:08.890Z,1.20
2022-08-02T02:31:40.327Z,1.35
2022-08-02T02:34:26.402Z,1.15
2022-08-02T02:36:56.577Z,1.30
2022-08-02T02:39:28.402Z,1.20
2022-08-02T02:42:01.471Z,1.90
2022-08-02T02:44:30.984Z,1.30
2022-08-02T02:47:00.350Z,1.20
2022-08-02T02:49:31.825Z,1.33
2022-08-02T02:52:00.098Z,1.33
2022-08-02T02:54:34.339Z,1.40
2022-08-02T02:57:06.287Z,1.50
2022-08-02T02:59:45.358Z,1.30
2022-08-02T03:02:19.640Z,1.40
2022-08-02T03:04:55.856Z,1.08
2022-08-02T03:07:26.922Z,1.33
2022-08-02T03:09:55.277Z,1.67
2022-08-02T03:12:30.974Z,1.60
2022-08-02T03:15:04.544Z,1.60
2022-08-02T03:17:44.935Z,1.55
2022-08-02T03:20:16.268Z,1.30
2022-08-02T03:25:15.130Z,1.20
2022-08-02T03:27:42.991Z,1.23
2022-08-02T03:30:13.170Z,1.50
2022-08-02T03:32:44.459Z,1.65
2022-08-02T03:35:22.695Z,1.60
2022-08-02T03:37:54.200Z,1.80
2022-08-02T03:40:23.091Z,1.60
2022-08-02T03:42:51.453Z,1.67
2022-08-02T03:45:20.674Z,1.60
2022-08-02T03:47:49.920Z,1.60
2022-08-02T03:50:19.684Z,1.95
2022-08-02T03:52:48.439Z,1.90
2022-08-02T03:55:16.319Z,2.22
2022-08-02T03:57:44.413Z,2.08
2022-08-02T04:00:19.643Z,2.20
2022-08-02T04:02:48.428Z,2.45
2022-08-02T04:05:18.874Z,2.47
2022-08-02T04:08:33.043Z,1.83
2022-08-02T04:10:56.386Z,1.88
2022-08-02T04:13:35.714Z,1.50
2022-08-02T04:16:42.586Z,1.42
2022-08-02T04:19:16.815Z,1.33
2022-08-02T04:21:51.675Z,1.23
2022-08-02T04:24:26.685Z,1.40
2022-08-02T04:26:57.816Z,1.55
2022-08-02T04:29:33.244Z,1.52
2022-08-02T04:32:02.701Z,1.40
2022-08-02T04:34:31.356Z,1.42
2022-08-02T04:37:00.469Z,1.20
2022-08-02T04:39:28.485Z,1.48
2022-08-02T04:41:57.932Z,1.13
2022-08-02T04:44:26.082Z,1.23
2022-08-02T04:46:55.400Z,1.50
2022-08-02T04:49:23.645Z,1.50
2022-08-02T04:51:51.644Z,1.40
2022-08-02T04:54:19.621Z,1.60
2022-08-02T04:56:47.409Z,1.40
2022-08-02T04:59:15.209Z,1.70
2022-08-02T05:01:43.129Z,1.35
2022-08-02T05:04:11.223Z,1.40
2022-08-02T05:06:39.009Z,1.40
2022-08-02T05:09:07.047Z,1.58
2022-08-02T05:11:36.699Z,1.60
2022-08-02T05:14:05.996Z,1.42
2022-08-02T05:16:33.953Z,1.60
2022-08-02T05:19:02.319Z,1.70
2022-08-02T05:21:31.733Z,1.50
2022-08-02T05:23:59.955Z,1.50
2022-08-02T05:26:27.829Z,1.75
2022-08-02T05:28:55.772Z,1.45
2022-08-02T05:31:23.537Z,1.40
2022-08-02T05:33:51.337Z,1.60
2022-08-02T05:36:19.181Z,1.90
2022-08-02T05:38:51.045Z,1.80
2022-08-02T05:41:20.362Z,1.83
2022-08-02T05:43:48.394Z,1.90
2022-08-02T05:46:16.388Z,1.83
2022-08-02T05:48:45.565Z,2.40
2022-08-02T05:51:24.214Z,2.25
2022-08-02T05:54:12.232Z,1.98
2022-08-02T05:57:01.850Z,2.20
2022-08-02T05:59:32.273Z,2.20
2022-08-02T06:02:08.667Z,2.20
2022-08-02T06:05:11.632Z,2.20
2022-08-02T06:07:46.593Z,2.50
2022-08-02T06:10:20.255Z,2.30
2022-08-02T06:13:09.591Z,2.10
2022-08-02T06:15:52.510Z,2.00
2022-08-02T06:18:28.381Z,2.00
2022-08-02T06:21:03.773Z,2.28
2022-08-02T06:23:58.895Z,2.20
2022-08-02T06:26:30.356Z,2.38
2022-08-02T06:28:58.899Z,2.20
2022-08-02T06:31:26.612Z,2.17
2022-08-02T06:33:55.225Z,2.20
2022-08-02T06:36:47.469Z,2.50
2022-08-02T06:39:39.198Z,2.42
2022-08-02T06:42:26.808Z,2.50
2022-08-02T06:44:58.124Z,2.58
2022-08-02T06:47:26.869Z,2.60
2022-08-02T06:49:56.741Z,2.20
2022-08-02T06:52:31.212Z,2.50
2022-08-02T06:55:05.281Z,2.10
2022-08-02T06:57:33.944Z,2.50
2022-08-02T07:00:05.707Z,2.33
2022-08-02T07:02:39.830Z,2.40
2022-08-02T07:05:09.224Z,2.50
2022-08-02T07:07:37.112Z,2.35
2022-08-02T07:10:05.525Z,2.50
2022-08-02T07:12:34.991Z,2.40
2022-08-02T07:15:06.318Z,2.40
2022-08-02T07:17:35.549Z,2.30
2022-08-02T07:20:04.631Z,2.30
2022-08-02T07:22:32.590Z,2.25
2022-08-02T07:25:01.047Z,2.15
2022-08-02T07:27:29.516Z,2.20
2022-08-02T07:29:57.840Z,2.10
2022-08-02T07:32:29.983Z,2.17
2022-08-02T07:34:59.421Z,2.28
2022-08-02T07:37:53.655Z,2.10
2022-08-02T07:40:21.054Z,2.15
2022-08-02T07:42:57.847Z,2.03
2022-08-02T07:45:32.765Z,2.10
2022-08-02T07:48:04.174Z,1.98
2022-08-02T07:50:31.966Z,2.00
2022-08-02T07:53:00.016Z,2.03
2022-08-02T07:55:31.209Z,2.00
2022-08-02T07:58:12.422Z,2.15
2022-08-02T08:00:43.830Z,1.90
2022-08-02T08:03:12.329Z,2.00
2022-08-02T08:05:40.874Z,1.98
2022-08-02T08:08:13.568Z,1.92
2022-08-02T08:10:45.024Z,2.00
2022-08-02T08:13:13.235Z,1.92
2022-08-02T08:15:41.408Z,1.65
2022-08-02T08:18:22.721Z,1.60
2022-08-02T08:23:19.823Z,1.60
2022-08-02T08:25:48.332Z,1.70
2022-08-02T08:28:16.923Z,1.83
2022-08-02T08:30:45.165Z,2.30
2022-08-02T08:33:13.532Z,2.00
2022-08-02T08:35:43.276Z,1.67
2022-08-02T08:38:11.275Z,1.75
2022-08-02T08:40:39.279Z,2.00
2022-08-02T08:43:07.117Z,1.80
2022-08-02T08:45:35.314Z,1.80
2022-08-02T08:48:16.121Z,1.63
2022-08-02T08:51:10.591Z,1.42
2022-08-02T08:53:44.276Z,1.40
2022-08-02T08:56:16.319Z,1.70
2022-08-02T08:58:47.618Z,1.30
2022-08-02T09:01:16.897Z,1.35
2022-08-02T09:03:46.291Z,1.40
2022-08-02T09:06:14.334Z,1.52
2022-08-02T09:08:42.074Z,1.30
2022-08-02T09:11:20.312Z,1.50
2022-08-02T09:13:58.639Z,1.33
2022-08-02T09:16:32.584Z,1.40
2022-08-02T09:19:17.107Z,1.80
2022-08-02T09:21:45.149Z,1.33
2022-08-02T09:24:22.831Z,1.30
2022-08-02T09:26:51.844Z,1.20
2022-08-02T09:29:23.923Z,1.40
2022-08-02T09:31:53.139Z,1.35
2022-08-02T09:34:22.332Z,2.15
2022-08-02T09:36:54.405Z,1.60
2022-08-02T09:39:23.790Z,1.50
2022-08-02T09:41:51.663Z,1.73
2022-08-02T09:44:19.369Z,1.30
2022-08-02T09:46:48.003Z,1.55
2022-08-02T09:49:18.681Z,1.48
2022-08-02T09:51:49.022Z,1.30
2022-08-02T09:54:19.905Z,1.40
2022-08-02T09:56:57.233Z,1.50
2022-08-02T09:59:26.571Z,1.55
2022-08-02T10:02:01.190Z,1.60
2022-08-02T10:04:34.059Z,1.40
2022-08-02T10:07:04.898Z,1.25
2022-08-02T10:09:33.682Z,1.25
2022-08-02T10:12:01.689Z,1.30
2022-08-02T10:14:33.824Z,1.50
2022-08-02T10:17:02.759Z,1.30
2022-08-02T10:20:00.018Z,1.23
2022-08-02T10:22:20.055Z,1.30
2022-08-02T10:24:49.186Z,1.20
2022-08-02T10:27:20.651Z,1.20
2022-08-02T10:29:54.943Z,1.40
2022-08-02T10:32:46.352Z,1.20
2022-08-02T10:35:25.712Z,1.15
2022-08-02T10:38:01.168Z,1.30
2022-08-02T10:40:55.503Z,1.35
2022-08-02T10:43:32.785Z,1.10
2022-08-02T10:46:34.334Z,1.13
2022-08-02T10:52:02.971Z,1.20
2022-08-02T10:54:44.365Z,1.20
2022-08-02T11:00:25.284Z,1.27
2022-08-02T11:02:53.878Z,1.00
2022-08-02T11:05:42.563Z,1.40
2022-08-02T11:08:22.650Z,1.30
2022-08-02T11:10:50.625Z,1.20
2022-08-02T11:13:22.194Z,1.58
2022-08-02T11:16:10.790Z,1.20
2022-08-02T11:18:51.428Z,1.20
2022-08-02T11:21:23.479Z,1.15
2022-08-02T11:23:52.758Z,1.20
2022-08-02T11:26:32.302Z,1.10
2022-08-02T11:29:05.254Z,1.15
2022-08-02T11:31:44.532Z,1.20
2022-08-02T11:34:36.421Z,1.20
2022-08-02T11:37:01.704Z,1.10
2022-08-02T11:39:29.713Z,1.20
2022-08-02T11:42:00.027Z,0.95
2022-08-02T11:44:30.686Z,1.17
2022-08-02T11:47:02.659Z,1.02
2022-08-02T11:49:31.437Z,1.40
2022-08-02T11:52:05.440Z,1.10
2022-08-02T11:54:40.193Z,1.10
2022-08-02T11:57:22.376Z,1.17
2022-08-02T11:59:53.335Z,1.15
2022-08-02T12:02:28.902Z,1.00
2022-08-02T12:05:02.070Z,0.93
2022-08-02T12:07:37.060Z,1.20
2022-08-02T12:10:20.135Z,1.20
2022-08-02T12:12:58.065Z,1.30
2022-08-02T12:15:46.527Z,1.30
2022-08-02T12:18:40.609Z,1.13
2022-08-02T12:21:24.902Z,1.00
2022-08-02T12:24:00.792Z,1.00
2022-08-02T12:26:46.714Z,1.20
2022-08-02T12:29:14.852Z,1.08
2022-08-02T12:32:03.983Z,1.17
2022-08-02T12:34:33.818Z,1.10
2022-08-02T12:37:04.661Z,1.20
2022-08-02T12:39:45.671Z,1.00
2022-08-02T12:42:16.306Z,1.35
2022-08-02T12:44:59.433Z,1.33
2022-08-02T12:47:31.404Z,1.00
2022-08-02T12:50:22.276Z,1.20
2022-08-02T12:52:51.147Z,1.40
2022-08-02T12:55:59.494Z,1.10
2022-08-02T12:58:14.564Z,1.15
2022-08-02T13:00:55.199Z,1.20
2022-08-02T13:04:09.555Z,1.13
2022-08-02T13:06:40.690Z,1.00
2022-08-02T13:09:00.693Z,1.00
2022-08-02T13:11:28.935Z,1.10
2022-08-02T13:13:56.866Z,1.00
2022-08-02T13:16:30.544Z,1.00
2022-08-02T13:19:00.035Z,1.13
2022-08-02T13:21:40.972Z,0.90
2022-08-02T13:24:33.318Z,0.80
2022-08-02T13:27:04.466Z,1.17
2022-08-02T13:29:37.686Z,1.10
2022-08-02T13:32:06.019Z,1.10
2022-08-02T13:34:33.954Z,1.00
2022-08-02T13:37:03.710Z,1.10
2022-08-02T13:39:31.753Z,1.00
2022-08-02T13:41:59.576Z,0.90
2022-08-02T13:44:27.522Z,1.00
2022-08-02T13:46:55.730Z,0.98
2022-08-02T13:49:50.190Z,0.90
2022-08-02T13:52:12.775Z,1.10
2022-08-02T13:54:41.064Z,0.95
2022-08-02T13:57:09.014Z,1.05
2022-08-02T13:59:56.279Z,1.00
2022-08-02T14:02:25.402Z,1.13
2022-08-02T14:04:53.306Z,1.02
2022-08-02T14:10:03.174Z,1.05
2022-08-02T14:12:30.889Z,1.65
2022-08-02T14:14:58.798Z,0.98
2022-08-02T14:17:26.712Z,1.10
2022-08-02T14:19:54.533Z,1.23
2022-08-02T14:22:22.898Z,0.80
2022-08-02T14:24:53.710Z,1.05
2022-08-02T14:27:21.702Z,0.90
2022-08-02T14:29:51.338Z,0.80
2022-08-02T14:32:19.161Z,0.95
2022-08-02T14:34:46.929Z,0.85
2022-08-02T14:37:16.237Z,0.90
2022-08-02T14:40:00.830Z,0.80
2022-08-02T14:42:30.098Z,0.93
2022-08-02T14:44:57.925Z,0.80
2022-08-02T14:47:25.711Z,0.90
2022-08-02T14:49:53.502Z,0.88
2022-08-02T14:52:21.378Z,0.70
2022-08-02T14:54:49.379Z,0.98
2022-08-02T14:57:17.353Z,0.80
2022-08-02T14:59:45.566Z,0.90
2022-08-02T15:02:14.293Z,0.80
2022-08-02T15:04:43.662Z,0.85
2022-08-02T15:07:13.748Z,0.65
2022-08-02T15:09:41.801Z,0.80
2022-08-02T15:12:11.573Z,0.90
2022-08-02T15:14:40.670Z,0.90
2022-08-02T15:17:09.294Z,0.73
2022-08-02T15:19:58.080Z,0.88
2022-08-02T15:22:25.636Z,0.82
2022-08-02T15:24:54.013Z,0.70
2022-08-02T15:27:21.824Z,1.10
2022-08-02T15:29:51.116Z,1.00
2022-08-02T15:32:19.576Z,1.00
2022-08-02T15:34:47.806Z,0.73
2022-08-02T15:37:15.590Z,0.82
2022-08-02T15:39:44.105Z,0.80
2022-08-02T15:42:12.458Z,1.33
2022-08-02T15:44:40.694Z,1.40
2022-08-02T15:47:08.997Z,1.10
2022-08-02T15:49:41.251Z,0.98
2022-08-02T15:52:10.295Z,0.60
2022-08-02T15:54:38.413Z,0.90
2022-08-02T15:57:06.987Z,0.80
2022-08-02T15:59:34.849Z,0.70
2022-08-02T16:02:04.036Z,0.80
2022-08-02T16:04:32.736Z,0.90
2022-08-02T16:07:01.618Z,0.60
2022-08-02T16:09:29.659Z,0.70
2022-08-02T16:11:57.859Z,0.77
2022-08-02T16:14:25.764Z,0.90
2022-08-02T16:16:53.874Z,0.80
2022-08-02T16:19:47.083Z,0.68
2022-08-02T16:22:12.495Z,1.00
2022-08-02T16:24:40.664Z,0.75
2022-08-02T16:27:08.641Z,0.80
2022-08-02T16:29:37.428Z,0.70
2022-08-02T16:32:06.147Z,0.80
2022-08-02T16:34:50.750Z,0.73
2022-08-02T16:37:22.587Z,0.90
2022-08-02T16:39:50.298Z,0.80
2022-08-02T16:42:25.038Z,1.10
2022-08-02T16:44:54.910Z,1.10
2022-08-02T16:47:37.017Z,1.02
2022-08-02T16:50:11.304Z,1.17
2022-08-02T16:55:51.925Z,0.75
2022-08-02T16:58:21.318Z,0.82
2022-08-02T17:00:49.273Z,0.82
2022-08-02T17:03:17.107Z,0.80
2022-08-02T17:05:56.362Z,0.80
2022-08-02T17:08:32.130Z,0.90
2022-08-02T17:11:03.110Z,0.90
2022-08-02T17:13:34.485Z,0.77
2022-08-02T17:16:26.312Z,1.00
2022-08-02T17:18:55.264Z,0.90
2022-08-02T17:21:23.199Z,0.90
2022-08-02T17:24:04.979Z,0.80
2022-08-02T17:26:37.843Z,0.82
2022-08-02T17:29:15.887Z,0.60
2022-08-02T17:32:05.033Z,0.95
2022-08-02T17:34:36.987Z,1.08
2022-08-02T17:37:06.220Z,1.00
2022-08-02T17:39:43.224Z,0.93
2022-08-02T17:45:24.856Z,0.95
2022-08-02T17:48:03.991Z,0.93
2022-08-02T17:50:34.703Z,1.00
2022-08-02T17:53:02.883Z,1.10
2022-08-02T17:55:31.031Z,1.15
2022-08-02T17:58:00.616Z,1.20
2022-08-02T18:00:34.611Z,1.20
2022-08-02T18:03:05.424Z,1.00
2022-08-02T18:05:40.068Z,0.82
2022-08-02T18:08:23.600Z,0.98
2022-08-02T18:10:54.204Z,1.05
2022-08-02T18:13:23.334Z,0.93
2022-08-02T18:15:57.189Z,1.23
2022-08-02T18:18:29.391Z,0.90
2022-08-02T18:21:16.322Z,1.00
2022-08-02T18:23:49.362Z,1.10
2022-08-02T18:26:20.809Z,0.80
2022-08-02T18:28:49.100Z,0.88
2022-08-02T18:31:22.530Z,1.10
2022-08-02T18:33:59.632Z,0.80
2022-08-02T18:36:30.429Z,0.80
2022-08-02T18:39:08.361Z,0.70
2022-08-02T18:41:36.530Z,0.88
2022-08-02T18:44:06.361Z,0.90
2022-08-02T18:46:34.274Z,0.73
2022-08-02T18:49:13.335Z,0.90
2022-08-02T18:54:11.844Z,1.00
2022-08-02T18:56:40.133Z,1.00
2022-08-02T18:59:07.992Z,1.10
2022-08-02T19:01:46.945Z,1.10
2022-08-02T19:04:27.462Z,1.13
2022-08-02T19:07:07.190Z,1.00
2022-08-02T19:09:39.830Z,1.02
2022-08-02T19:12:11.384Z,0.80
2022-08-02T19:14:40.422Z,1.00
2022-08-02T19:17:53.903Z,1.00
2022-08-02T19:19:56.800Z,1.02
2022-08-02T19:22:25.366Z,0.90
2022-08-02T19:25:01.176Z,1.10
2022-08-02T19:27:32.942Z,0.93
2022-08-02T19:30:07.477Z,1.00
2022-08-02T19:32:42.116Z,1.27
2022-08-02T19:35:29.576Z,1.25
2022-08-02T19:38:10.223Z,1.30
2022-08-02T19:40:41.791Z,1.23
2022-08-02T19:44:26.075Z,1.30
2022-08-02T19:45:59.122Z,1.20
2022-08-02T19:48:28.220Z,1.10
2022-08-02T19:51:00.538Z,1.30
2022-08-02T19:53:47.888Z,1.30
2022-08-02T19:56:24.859Z,1.15
2022-08-02T19:58:56.975Z,1.48
2022-08-02T20:04:14.181Z,1.08
2022-08-02T20:06:47.770Z,1.27
2022-08-02T20:09:21.545Z,1.00
2022-08-02T20:11:54.528Z,1.30
2022-08-02T20:14:27.630Z,1.20
2022-08-02T20:16:57.224Z,1.60
2022-08-02T20:19:25.188Z,1.50
2022-08-02T20:21:59.447Z,1.40
2022-08-02T20:24:29.528Z,1.25
2022-08-02T20:26:59.284Z,1.30
2022-08-02T20:29:43.170Z,1.13
2022-08-02T20:32:22.500Z,1.20
2022-08-02T20:34:51.161Z,1.10
2022-08-02T20:37:59.722Z,1.30
2022-08-02T20:40:10.162Z,1.30
2022-08-02T20:42:47.578Z,1.20
2022-08-02T20:47:51.017Z,1.00
2022-08-02T20:50:38.497Z,1.10
2022-08-02T20:53:08.858Z,1.13
2022-08-02T20:55:54.023Z,1.20
2022-08-02T20:58:26.832Z,1.30
2022-08-02T21:00:59.261Z,1.10
2022-08-02T21:03:32.303Z,1.40
2022-08-02T21:06:15.111Z,1.67
2022-08-02T21:08:45.971Z,1.20
2022-08-02T21:11:14.552Z,1.27
2022-08-02T21:13:46.388Z,1.30
2022-08-02T21:16:18.450Z,1.10
2022-08-02T21:18:51.249Z,1.15
2022-08-02T21:21:18.966Z,1.15
2022-08-02T21:23:48.943Z,1.15
2022-08-02T21:26:28.554Z,1.20
2022-08-02T21:29:03.620Z,1.33
2022-08-02T21:31:35.857Z,1.20
2022-08-02T21:34:21.946Z,1.30
2022-08-02T21:36:50.838Z,1.30
2022-08-02T21:39:19.079Z,1.40
2022-08-02T21:41:49.251Z,1.40
2022-08-02T21:44:19.535Z,1.45
2022-08-02T21:46:50.385Z,1.37
2022-08-02T21:49:20.041Z,1.50
2022-08-02T21:51:50.149Z,1.27
2022-08-02T21:54:21.245Z,1.30
2022-08-02T21:56:52.914Z,1.20
2022-08-02T21:59:25.205Z,1.48
2022-08-02T22:01:56.746Z,1.73
2022-08-02T22:04:28.623Z,1.30
2022-08-02T22:06:57.766Z,1.20
2022-08-02T22:09:44.485Z,1.40
2022-08-02T22:12:17.570Z,1.20
2022-08-02T22:14:54.225Z,1.30
2022-08-02T22:17:30.438Z,1.50
2022-08-02T22:20:19.606Z,1.20
2022-08-02T22:22:52.538Z,1.25
2022-08-02T22:25:27.212Z,1.60
2022-08-02T22:28:37.714Z,1.60
2022-08-02T22:31:04.474Z,1.40
2022-08-02T22:34:00.317Z,1.90
2022-08-02T22:36:38.665Z,1.63
2022-08-02T22:39:19.378Z,1.38
2022-08-02T22:42:05.929Z,1.50
2022-08-02T22:44:35.603Z,1.60
2022-08-02T22:47:07.522Z,1.52
2022-08-02T22:49:51.669Z,1.42
2022-08-02T22:52:24.201Z,1.70
2022-08-02T22:54:52.326Z,1.60
2022-08-02T22:57:30.610Z,1.45
2022-08-02T22:58:39.899Z,1.10
2022-08-02T22:58:54.159Z,1.23
2022-08-02T23:00:00.653Z,1.50
2022-08-02T23:02:28.458Z,1.60
2022-08-02T23:04:58.241Z,1.70
2022-08-02T23:07:26.394Z,1.70
2022-08-02T23:09:54.744Z,1.52
2022-08-02T23:12:22.834Z,1.83
2022-08-02T23:14:51.644Z,1.73
2022-08-02T23:17:38.881Z,1.80
2022-08-02T23:20:09.685Z,1.70
2022-08-02T23:22:38.165Z,1.60
2022-08-02T23:25:07.659Z,1.60
2022-08-02T23:27:36.049Z,1.55
2022-08-02T23:30:05.297Z,1.70
2022-08-02T23:32:33.073Z,1.60
2022-08-02T23:35:01.077Z,2.00
2022-08-02T23:37:28.932Z,1.60
2022-08-02T23:40:38.729Z,1.73
2022-08-02T23:43:14.356Z,1.80
2022-08-02T23:45:45.240Z,1.90
2022-08-02T23:48:13.259Z,1.83
2022-08-02T23:50:41.116Z,1.95
2022-08-02T23:53:09.037Z,1.88
2022-08-02T23:55:36.916Z,2.00
2022-08-02T23:58:04.836Z,1.70
